X  Chiuso Dati meteorologici dell'aviazione (METAR)     LGRX Patras Araxos Agamemnon Airport
Temperatura
66°F Temperatura
52°F Punto di rugiada
60% Umidità



Vento
0 MPH
0 KM/O
0 M/S
0 KTS



Calmo
N
Condizioni attuali

Chiaro Chiaro
Pressione 1019.92 (hPa) - 30.12 (inHg)
Visibilità 6.2 (miglio) - 10 (km)
Aeroporto
Codice-Aeroporto LGRX

Posizione: Patras Araxos Agamemnon Airport
Distanza: 108 (mi)

Metar:
LGRX 241750Z 00000KT CAVOK 19/11 Q1020

Ore: 24-09-2022 20:50 EEST